createdAt,value
2022-09-24T00:01:59.428Z,83.85
2022-09-24T00:04:28.695Z,83.97
2022-09-24T00:06:56.948Z,84.13
2022-09-24T00:09:25.137Z,84.04
2022-09-24T00:11:53.965Z,84.36
2022-09-24T00:14:23.646Z,84.46
2022-09-24T00:16:51.908Z,84.67
2022-09-24T00:19:20.200Z,84.82
2022-09-24T00:21:48.426Z,85.24
2022-09-24T00:24:32.472Z,85.21
2022-09-24T00:27:03.068Z,85.49
2022-09-24T00:29:34.212Z,85.54
2022-09-24T00:32:03.821Z,85.62
2022-09-24T00:34:32.136Z,85.66
2022-09-24T00:37:00.385Z,85.91
2022-09-24T00:39:29.027Z,86.09
2022-09-24T00:41:57.289Z,86.21
2022-09-24T00:44:53.816Z,86.00
2022-09-24T00:47:31.138Z,86.19
2022-09-24T00:50:08.066Z,86.36
2022-09-24T00:52:39.902Z,86.50
2022-09-24T00:55:10.863Z,86.52
2022-09-24T00:57:41.488Z,86.63
2022-09-24T01:00:14.970Z,86.58
2022-09-24T01:02:47.890Z,86.61
2022-09-24T01:05:16.313Z,86.70
2022-09-24T01:07:44.848Z,86.56
2022-09-24T01:10:13.156Z,86.81
2022-09-24T01:12:46.390Z,86.58
2022-09-24T01:15:23.705Z,86.56
2022-09-24T01:17:59.822Z,86.73
2022-09-24T01:20:54.651Z,86.49
2022-09-24T01:23:48.554Z,86.75
2022-09-24T01:26:39.565Z,86.46
2022-09-24T01:29:42.343Z,86.29
2022-09-24T01:32:18.472Z,86.48
2022-09-24T01:34:50.537Z,86.58
2022-09-24T01:37:22.294Z,86.60
2022-09-24T01:39:53.379Z,86.56
2022-09-24T01:42:23.582Z,86.32
2022-09-24T01:44:53.728Z,86.27
2022-09-24T01:47:29.929Z,86.23
2022-09-24T01:50:03.082Z,86.36
2022-09-24T01:52:36.217Z,86.28
2022-09-24T01:55:07.838Z,86.16
2022-09-24T01:57:40.114Z,86.23
2022-09-24T02:00:13.102Z,86.37
2022-09-24T02:02:46.521Z,86.38
2022-09-24T02:05:21.226Z,86.62
2022-09-24T02:07:58.553Z,86.83
2022-09-24T02:10:31.992Z,86.99
2022-09-24T02:13:05.246Z,87.10
2022-09-24T02:15:39.345Z,86.99
2022-09-24T02:18:10.365Z,86.98
2022-09-24T02:20:41.966Z,87.15
2022-09-24T02:23:12.364Z,86.96
2022-09-24T02:25:44.340Z,86.98
2022-09-24T02:28:12.677Z,86.79
2022-09-24T02:30:48.301Z,86.76
2022-09-24T02:33:35.316Z,86.70
2022-09-24T02:36:03.903Z,86.86
2022-09-24T02:38:32.222Z,86.58
2022-09-24T02:41:00.657Z,86.20
2022-09-24T02:43:28.998Z,86.19
2022-09-24T02:45:58.620Z,86.08
2022-09-24T02:48:26.814Z,86.08
2022-09-24T02:50:55.151Z,85.83
2022-09-24T02:53:23.365Z,86.06
2022-09-24T02:55:51.649Z,85.90
2022-09-24T02:58:19.985Z,85.78
2022-09-24T03:00:48.399Z,85.64
2022-09-24T03:03:18.015Z,85.36
2022-09-24T03:05:47.182Z,85.37
2022-09-24T03:08:15.401Z,85.05
2022-09-24T03:10:43.573Z,85.17
2022-09-24T03:13:12.182Z,85.11
2022-09-24T03:15:40.558Z,85.25
2022-09-24T03:18:08.762Z,85.18
2022-09-24T03:20:39.977Z,84.93
2022-09-24T03:23:08.440Z,84.94
2022-09-24T03:25:36.685Z,85.11
2022-09-24T03:28:04.983Z,85.08
2022-09-24T03:30:50.620Z,85.04
2022-09-24T03:33:18.971Z,85.15
2022-09-24T03:35:48.568Z,85.23
2022-09-24T03:38:16.860Z,85.15
2022-09-24T03:40:45.062Z,85.34
2022-09-24T03:43:13.435Z,85.02
2022-09-24T03:45:41.664Z,85.36
2022-09-24T03:48:09.910Z,85.15
2022-09-24T03:50:38.701Z,84.82
2022-09-24T03:53:08.495Z,84.90
2022-09-24T03:55:37.005Z,84.85
2022-09-24T03:58:05.272Z,84.98
2022-09-24T04:00:36.408Z,85.04
2022-09-24T04:03:08.623Z,84.87
2022-09-24T04:05:37.393Z,84.89
2022-09-24T04:08:06.346Z,84.80
2022-09-24T04:10:35.887Z,84.76
2022-09-24T04:13:04.348Z,84.20
2022-09-24T04:15:33.897Z,84.65
2022-09-24T04:18:02.224Z,84.51
2022-09-24T04:20:31.157Z,84.62
2022-09-24T04:23:00.473Z,84.41
2022-09-24T04:25:31.536Z,84.22
2022-09-24T04:28:03.219Z,84.48
2022-09-24T04:30:32.651Z,84.49
2022-09-24T04:33:02.621Z,84.38
2022-09-24T04:35:33.004Z,84.33
2022-09-24T04:38:01.389Z,84.48
2022-09-24T04:40:30.091Z,84.28
2022-09-24T04:43:00.183Z,83.99
2022-09-24T04:45:28.478Z,84.05
2022-09-24T04:47:58.016Z,84.02
2022-09-24T04:50:28.822Z,83.94
2022-09-24T04:52:57.414Z,84.04
2022-09-24T04:55:26.218Z,84.15
2022-09-24T04:57:57.321Z,84.13
2022-09-24T05:00:27.018Z,84.07
2022-09-24T05:02:59.666Z,84.13
2022-09-24T05:05:28.348Z,83.96
2022-09-24T05:07:58.432Z,83.93
2022-09-24T05:10:27.542Z,83.76
2022-09-24T05:12:55.841Z,83.80
2022-09-24T05:15:24.099Z,83.65
2022-09-24T05:17:53.841Z,83.82
2022-09-24T05:20:22.041Z,83.87
2022-09-24T05:22:50.889Z,83.72
2022-09-24T05:25:21.421Z,83.87
2022-09-24T05:27:50.427Z,83.64
2022-09-24T05:30:19.934Z,83.47
2022-09-24T05:32:49.644Z,83.57
2022-09-24T05:35:19.751Z,83.58
2022-09-24T05:37:49.741Z,83.73
2022-09-24T05:40:35.581Z,83.73
2022-09-24T05:43:05.793Z,83.75
2022-09-24T05:45:34.357Z,83.60
2022-09-24T05:48:03.135Z,83.50
2022-09-24T05:50:35.093Z,83.40
2022-09-24T05:53:04.014Z,83.55
2022-09-24T05:55:32.892Z,83.73
2022-09-24T05:58:06.784Z,83.60
2022-09-24T06:00:36.093Z,83.66
2022-09-24T06:03:07.976Z,83.58
2022-09-24T06:05:37.840Z,83.59
2022-09-24T06:08:08.773Z,79.23
2022-09-24T06:10:37.697Z,81.01
2022-09-24T06:13:06.336Z,81.75
2022-09-24T06:15:36.159Z,82.16
2022-09-24T06:18:04.457Z,82.26
2022-09-24T06:20:33.609Z,82.50
2022-09-24T06:23:03.612Z,82.34
2022-09-24T06:25:32.268Z,82.21
2022-09-24T06:28:02.107Z,82.35
2022-09-24T06:30:31.447Z,82.73
2022-09-24T06:33:05.203Z,82.57
2022-09-24T06:35:35.329Z,82.58
2022-09-24T06:38:06.637Z,82.60
2022-09-24T06:40:37.348Z,82.52
2022-09-24T06:43:06.852Z,82.67
2022-09-24T06:45:36.254Z,82.61
2022-09-24T06:48:06.608Z,82.61
2022-09-24T06:50:36.088Z,82.57
2022-09-24T06:53:08.913Z,82.36
2022-09-24T06:55:37.848Z,82.52
2022-09-24T06:58:07.705Z,82.31
2022-09-24T07:00:37.226Z,82.15
2022-09-24T07:03:05.981Z,82.13
2022-09-24T07:05:38.323Z,81.95
2022-09-24T07:08:10.871Z,81.98
2022-09-24T07:10:39.777Z,81.87
2022-09-24T07:13:07.994Z,81.60
2022-09-24T07:15:36.278Z,81.40
2022-09-24T07:18:04.751Z,81.30
2022-09-24T07:20:34.169Z,81.28
2022-09-24T07:23:02.424Z,81.27
2022-09-24T07:25:32.507Z,81.26
2022-09-24T07:28:05.272Z,81.33
2022-09-24T07:30:33.989Z,81.22
2022-09-24T07:33:02.453Z,81.43
2022-09-24T07:35:31.253Z,81.29
2022-09-24T07:38:01.445Z,81.23
2022-09-24T07:40:32.873Z,81.51
2022-09-24T07:43:01.856Z,81.31
2022-09-24T07:45:31.611Z,81.31
2022-09-24T07:48:01.718Z,81.28
2022-09-24T07:50:31.565Z,80.65
2022-09-24T07:53:00.639Z,80.88
2022-09-24T07:55:28.989Z,80.66
2022-09-24T07:57:58.691Z,80.73
2022-09-24T08:00:26.902Z,80.85
2022-09-24T08:02:56.622Z,80.74
2022-09-24T08:05:33.038Z,79.54
2022-09-24T08:08:01.577Z,79.56
2022-09-24T08:10:30.055Z,79.12
2022-09-24T08:13:02.816Z,78.35
2022-09-24T08:15:31.493Z,78.50
2022-09-24T08:18:03.539Z,78.40
2022-09-24T08:20:32.822Z,77.83
2022-09-24T08:23:03.081Z,77.72
2022-09-24T08:25:31.983Z,77.46
2022-09-24T08:28:04.611Z,77.26
2022-09-24T08:30:33.592Z,76.40
2022-09-24T08:33:01.873Z,75.28
2022-09-24T08:35:30.169Z,74.56
2022-09-24T08:38:00.686Z,74.56
2022-09-24T08:40:32.680Z,73.50
2022-09-24T08:43:10.539Z,73.18
2022-09-24T08:46:03.117Z,72.70
2022-09-24T08:48:37.206Z,71.93
2022-09-24T08:51:09.618Z,71.70
2022-09-24T08:53:48.761Z,71.86
2022-09-24T08:56:22.202Z,71.36
2022-09-24T08:58:57.999Z,72.66
2022-09-24T09:01:36.945Z,72.71
2022-09-24T09:04:20.249Z,72.23
2022-09-24T09:07:06.431Z,72.09
2022-09-24T09:09:44.433Z,71.55
2022-09-24T09:12:17.234Z,71.53
2022-09-24T09:14:52.133Z,71.10
2022-09-24T09:17:36.099Z,70.62
2022-09-24T09:20:09.084Z,69.89
2022-09-24T09:22:44.585Z,70.02
2022-09-24T09:25:20.558Z,69.47
2022-09-24T09:27:52.866Z,68.93
2022-09-24T09:30:23.240Z,69.28
2022-09-24T09:33:09.318Z,68.83
2022-09-24T09:35:45.643Z,67.73
2022-09-24T09:38:24.105Z,67.82
2022-09-24T09:41:00.982Z,67.10
2022-09-24T09:43:29.379Z,66.72
2022-09-24T09:46:08.873Z,66.88
2022-09-24T09:48:45.980Z,67.89
2022-09-24T09:51:22.775Z,67.36
2022-09-24T09:53:58.704Z,67.97
2022-09-24T09:56:30.014Z,67.69
2022-09-24T09:59:09.917Z,67.76
2022-09-24T10:01:41.901Z,66.38
2022-09-24T10:04:30.177Z,65.85
2022-09-24T10:07:06.777Z,65.75
2022-09-24T10:09:35.278Z,65.50
2022-09-24T10:12:16.217Z,65.65
2022-09-24T10:14:45.529Z,65.10
2022-09-24T10:17:20.581Z,64.82
2022-09-24T10:19:51.018Z,64.05
2022-09-24T10:22:23.418Z,64.08
2022-09-24T10:24:52.826Z,63.52
2022-09-24T10:27:30.379Z,62.90
2022-09-24T10:30:17.073Z,63.39
2022-09-24T10:32:48.843Z,63.57
2022-09-24T10:35:27.765Z,63.07
2022-09-24T10:37:58.075Z,62.84
2022-09-24T10:40:31.097Z,62.85
2022-09-24T10:43:01.976Z,63.06
2022-09-24T10:46:06.820Z,63.01
2022-09-24T10:48:44.625Z,63.39
2022-09-24T10:51:29.137Z,63.35
2022-09-24T10:54:16.819Z,62.92
2022-09-24T10:56:51.833Z,61.95
2022-09-24T10:59:45.639Z,61.52
2022-09-24T11:02:34.593Z,60.57
2022-09-24T11:05:10.311Z,59.81
2022-09-24T11:07:55.730Z,58.28
2022-09-24T11:10:37.168Z,58.86
2022-09-24T11:13:17.859Z,59.08
2022-09-24T11:16:16.755Z,59.38
2022-09-24T11:18:57.717Z,58.74
2022-09-24T11:21:49.756Z,58.65
2022-09-24T11:24:54.729Z,58.00
2022-09-24T11:27:43.102Z,57.60
2022-09-24T11:30:14.462Z,58.21
2022-09-24T11:33:03.919Z,57.54
2022-09-24T11:35:46.080Z,57.50
2022-09-24T11:41:17.041Z,55.00
2022-09-24T11:44:23.673Z,56.33
2022-09-24T11:47:06.887Z,58.03
2022-09-24T11:49:49.770Z,57.71
2022-09-24T11:52:29.219Z,56.70
2022-09-24T11:55:06.030Z,56.18
2022-09-24T11:57:38.721Z,55.21
2022-09-24T12:00:13.906Z,55.24
2022-09-24T12:02:45.140Z,54.86
2022-09-24T12:05:21.634Z,54.32
2022-09-24T12:07:55.235Z,55.09
2022-09-24T12:10:34.764Z,55.71
2022-09-24T12:13:13.594Z,55.71
2022-09-24T12:15:49.057Z,55.72
2022-09-24T12:18:22.558Z,55.16
2022-09-24T12:20:54.330Z,53.43
2022-09-24T12:23:28.306Z,54.16
2022-09-24T12:25:59.635Z,54.27
2022-09-24T12:28:51.845Z,53.74
2022-09-24T12:31:44.946Z,55.31
2022-09-24T12:34:20.673Z,54.88
2022-09-24T12:36:59.106Z,55.35
2022-09-24T12:39:33.934Z,53.46
2022-09-24T12:42:08.038Z,54.58
2022-09-24T12:44:43.361Z,52.96
2022-09-24T12:47:21.703Z,53.69
2022-09-24T12:49:55.701Z,55.23
2022-09-24T12:52:28.487Z,54.69
2022-09-24T12:55:00.605Z,53.22
2022-09-24T12:57:33.951Z,52.88
2022-09-24T13:00:04.303Z,53.42
2022-09-24T13:02:46.353Z,53.08
2022-09-24T13:05:28.389Z,52.93
2022-09-24T13:08:00.101Z,54.13
2022-09-24T13:10:31.077Z,54.20
2022-09-24T13:13:01.880Z,53.59
2022-09-24T13:15:35.943Z,53.04
2022-09-24T13:18:19.940Z,52.60
2022-09-24T13:21:00.917Z,53.24
2022-09-24T13:23:46.563Z,51.62
2022-09-24T13:26:27.837Z,51.31
2022-09-24T13:28:59.305Z,53.00
2022-09-24T13:31:35.118Z,52.07
2022-09-24T13:34:14.057Z,52.52
2022-09-24T13:36:47.089Z,52.63
2022-09-24T13:39:20.176Z,51.87
2022-09-24T13:41:56.497Z,52.94
2022-09-24T13:44:31.519Z,52.28
2022-09-24T13:47:03.888Z,51.21
2022-09-24T13:49:35.075Z,51.83
2022-09-24T13:52:14.894Z,52.34
2022-09-24T13:54:53.353Z,51.89
2022-09-24T13:57:24.792Z,51.29
2022-09-24T14:00:15.397Z,51.96
2022-09-24T14:02:46.421Z,50.35
2022-09-24T14:05:18.731Z,51.20
2022-09-24T14:07:56.197Z,51.03
2022-09-24T14:10:25.057Z,50.68
2022-09-24T14:13:03.375Z,50.48
2022-09-24T14:15:33.108Z,50.11
2022-09-24T14:18:01.508Z,51.36
2022-09-24T14:20:34.562Z,50.75
2022-09-24T14:23:05.211Z,51.65
2022-09-24T14:25:37.949Z,51.82
2022-09-24T14:28:06.974Z,52.29
2022-09-24T14:30:40.524Z,52.35
2022-09-24T14:33:16.426Z,51.46
2022-09-24T14:35:48.428Z,52.43
2022-09-24T14:38:23.701Z,52.13
2022-09-24T14:40:56.887Z,51.30
2022-09-24T14:43:31.554Z,51.17
2022-09-24T14:46:07.596Z,51.81
2022-09-24T14:48:36.780Z,52.01
2022-09-24T14:51:05.477Z,53.22
2022-09-24T14:53:38.304Z,53.03
2022-09-24T14:56:21.261Z,52.57
2022-09-24T14:58:49.692Z,51.93
2022-09-24T15:01:22.555Z,52.21
2022-09-24T15:03:53.296Z,53.21
2022-09-24T15:06:28.021Z,53.10
2022-09-24T15:09:00.737Z,54.22
2022-09-24T15:11:31.585Z,55.00
2022-09-24T15:14:02.449Z,56.16
2022-09-24T15:16:34.674Z,56.85
2022-09-24T15:19:17.557Z,56.74
2022-09-24T15:21:46.365Z,56.72
2022-09-24T15:24:14.597Z,56.70
2022-09-24T15:26:45.337Z,57.21
2022-09-24T15:29:20.733Z,56.97
2022-09-24T15:31:50.698Z,56.45
2022-09-24T15:34:20.233Z,57.41
2022-09-24T15:36:49.571Z,57.65
2022-09-24T15:39:20.487Z,58.11
2022-09-24T15:41:48.946Z,58.70
2022-09-24T15:44:22.664Z,58.31
2022-09-24T15:46:54.209Z,58.51
2022-09-24T15:49:24.281Z,59.42
2022-09-24T15:51:57.255Z,58.83
2022-09-24T15:54:25.561Z,58.92
2022-09-24T15:56:55.004Z,59.24
2022-09-24T15:59:24.673Z,59.20
2022-09-24T16:01:58.420Z,58.53
2022-09-24T16:04:26.902Z,59.37
2022-09-24T16:06:55.124Z,58.96
2022-09-24T16:09:25.869Z,59.39
2022-09-24T16:11:57.895Z,59.65
2022-09-24T16:14:26.234Z,59.72
2022-09-24T16:16:57.365Z,59.66
2022-09-24T16:19:26.131Z,59.71
2022-09-24T16:21:55.080Z,60.28
2022-09-24T16:24:23.672Z,60.45
2022-09-24T16:26:51.893Z,61.20
2022-09-24T16:29:20.619Z,60.70
2022-09-24T16:31:49.595Z,60.64
2022-09-24T16:34:19.300Z,60.87
2022-09-24T16:36:48.564Z,61.17
2022-09-24T16:39:16.953Z,61.61
2022-09-24T16:41:45.344Z,61.61
2022-09-24T16:44:15.272Z,61.83
2022-09-24T16:46:43.985Z,62.41
2022-09-24T16:49:12.636Z,62.68
2022-09-24T16:51:42.336Z,62.90
2022-09-24T16:54:12.145Z,63.45
2022-09-24T16:56:43.039Z,63.63
2022-09-24T16:59:12.014Z,63.97
2022-09-24T17:01:42.636Z,63.95
2022-09-24T17:04:11.254Z,64.13
2022-09-24T17:06:40.487Z,64.26
2022-09-24T17:09:28.699Z,64.30
2022-09-24T17:11:57.483Z,64.88
2022-09-24T17:14:25.976Z,65.25
2022-09-24T17:16:54.336Z,65.51
2022-09-24T17:19:22.676Z,65.54
2022-09-24T17:21:51.272Z,65.75
2022-09-24T17:24:21.988Z,65.91
2022-09-24T17:26:50.672Z,66.12
2022-09-24T17:29:20.848Z,66.13
2022-09-24T17:31:49.332Z,66.36
2022-09-24T17:34:17.977Z,66.45
2022-09-24T17:36:46.303Z,66.65
2022-09-24T17:39:15.306Z,66.86
2022-09-24T17:41:45.003Z,66.76
2022-09-24T17:44:14.786Z,66.87
2022-09-24T17:46:43.133Z,67.20
2022-09-24T17:49:12.114Z,67.44
2022-09-24T17:51:40.648Z,67.25
2022-09-24T17:54:12.222Z,66.97
2022-09-24T17:56:41.081Z,67.17
2022-09-24T17:59:12.810Z,67.08
2022-09-24T18:01:43.021Z,67.17
2022-09-24T18:04:13.564Z,67.11
2022-09-24T18:06:43.309Z,67.21
2022-09-24T18:09:13.003Z,67.05
2022-09-24T18:11:42.961Z,67.26
2022-09-24T18:14:16.957Z,67.59
2022-09-24T18:16:46.363Z,67.94
2022-09-24T18:19:17.224Z,67.75
2022-09-24T18:21:46.023Z,67.97
2022-09-24T18:24:14.634Z,67.87
2022-09-24T18:26:43.226Z,68.07
2022-09-24T18:29:16.652Z,67.87
2022-09-24T18:31:45.610Z,68.44
2022-09-24T18:34:15.402Z,68.68
2022-09-24T18:36:45.350Z,68.64
2022-09-24T18:39:21.952Z,68.90
2022-09-24T18:41:52.296Z,69.20
2022-09-24T18:44:22.011Z,69.37
2022-09-24T18:46:50.575Z,69.44
2022-09-24T18:49:19.525Z,69.78
2022-09-24T18:51:49.045Z,70.34
2022-09-24T18:54:18.428Z,70.51
2022-09-24T18:56:47.480Z,70.52
2022-09-24T18:59:18.222Z,70.36
2022-09-24T19:01:49.467Z,70.43
2022-09-24T19:04:18.646Z,70.72
2022-09-24T19:06:49.944Z,70.85
2022-09-24T19:09:18.848Z,71.27
2022-09-24T19:11:49.087Z,71.43
2022-09-24T19:14:18.594Z,71.84
2022-09-24T19:16:50.313Z,71.78
2022-09-24T19:19:18.552Z,72.30
2022-09-24T19:21:47.055Z,72.81
2022-09-24T19:24:15.334Z,72.96
2022-09-24T19:26:43.713Z,72.99
2022-09-24T19:29:12.181Z,73.03
2022-09-24T19:31:42.525Z,72.95
2022-09-24T19:34:14.642Z,73.14
2022-09-24T19:36:44.837Z,73.34
2022-09-24T19:39:15.667Z,73.54
2022-09-24T19:41:44.331Z,73.69
2022-09-24T19:44:13.690Z,73.69
2022-09-24T19:46:43.936Z,73.52
2022-09-24T19:49:13.857Z,73.54
2022-09-24T19:51:42.035Z,73.83
2022-09-24T19:54:11.663Z,73.81
2022-09-24T19:56:40.167Z,73.97
2022-09-24T19:59:09.641Z,74.04
2022-09-24T20:01:38.364Z,74.06
2022-09-24T20:04:08.420Z,74.16
2022-09-24T20:06:39.516Z,73.69
2022-09-24T20:09:08.340Z,73.64
2022-09-24T20:11:37.011Z,73.70
2022-09-24T20:14:09.130Z,73.66
2022-09-24T20:16:38.422Z,73.58
2022-09-24T20:19:06.978Z,73.70
2022-09-24T20:21:38.761Z,73.76
2022-09-24T20:24:08.667Z,73.91
2022-09-24T20:26:55.253Z,74.05
2022-09-24T20:29:24.152Z,74.26
2022-09-24T20:31:55.641Z,74.31
2022-09-24T20:34:33.866Z,74.44
2022-09-24T20:37:05.743Z,74.38
2022-09-24T20:39:35.174Z,74.40
2022-09-24T20:42:06.009Z,74.41
2022-09-24T20:44:34.872Z,74.22
2022-09-24T20:47:03.104Z,74.54
2022-09-24T20:49:33.300Z,74.72
2022-09-24T20:52:03.502Z,74.98
2022-09-24T20:54:31.786Z,75.36
2022-09-24T20:57:01.021Z,75.14
2022-09-24T20:59:29.967Z,74.91
2022-09-24T21:01:58.413Z,74.86
2022-09-24T21:04:27.150Z,74.81
2022-09-24T21:06:55.853Z,74.75
2022-09-24T21:09:25.563Z,75.09
2022-09-24T21:11:54.548Z,74.69
2022-09-24T21:14:23.460Z,74.82
2022-09-24T21:16:54.237Z,74.82
2022-09-24T21:19:22.556Z,74.94
2022-09-24T21:21:52.282Z,75.20
2022-09-24T21:24:20.761Z,75.46
2022-09-24T21:26:50.342Z,75.46
2022-09-24T21:29:21.830Z,75.24
2022-09-24T21:31:50.273Z,74.95
2022-09-24T21:34:20.859Z,74.79
2022-09-24T21:36:49.714Z,74.92
2022-09-24T21:39:19.687Z,75.03
2022-09-24T21:41:51.408Z,74.94
2022-09-24T21:44:20.439Z,74.61
2022-09-24T21:46:52.801Z,74.25
2022-09-24T21:49:22.985Z,74.04
2022-09-24T21:51:52.590Z,73.75
2022-09-24T21:54:21.022Z,73.90
2022-09-24T21:56:50.906Z,74.41
2022-09-24T21:59:36.944Z,74.68
2022-09-24T22:02:05.776Z,74.41
2022-09-24T22:04:34.020Z,74.07
2022-09-24T22:07:02.666Z,73.93
2022-09-24T22:09:32.012Z,73.75
2022-09-24T22:12:02.524Z,73.60
2022-09-24T22:14:31.099Z,73.66
2022-09-24T22:16:59.479Z,73.75
2022-09-24T22:19:27.792Z,73.17
2022-09-24T22:21:56.004Z,73.16
2022-09-24T22:24:24.351Z,73.26
2022-09-24T22:26:54.124Z,73.01
2022-09-24T22:29:24.015Z,73.06
2022-09-24T22:31:52.317Z,73.02
2022-09-24T22:34:37.808Z,73.02
2022-09-24T22:37:07.690Z,73.17
2022-09-24T22:39:36.453Z,73.15
2022-09-24T22:42:05.189Z,73.45
2022-09-24T22:44:35.150Z,73.50
2022-09-24T22:47:03.387Z,73.70
2022-09-24T22:49:32.778Z,73.56
2022-09-24T22:52:01.007Z,73.17
2022-09-24T22:54:29.493Z,73.07
2022-09-24T22:56:57.746Z,73.24
2022-09-24T22:59:26.073Z,73.22
2022-09-24T23:01:55.665Z,73.32
2022-09-24T23:04:24.224Z,72.71
2022-09-24T23:06:52.797Z,72.91
2022-09-24T23:09:21.796Z,72.82
2022-09-24T23:11:50.092Z,72.79
2022-09-24T23:14:18.576Z,72.80
2022-09-24T23:16:46.953Z,72.86
2022-09-24T23:19:20.273Z,72.54
2022-09-24T23:21:48.581Z,72.64
2022-09-24T23:24:18.691Z,72.74
2022-09-24T23:26:48.463Z,73.35
2022-09-24T23:29:17.339Z,72.64
2022-09-24T23:31:45.794Z,72.33
2022-09-24T23:34:15.025Z,72.59
2022-09-24T23:36:46.627Z,72.32
2022-09-24T23:39:15.229Z,72.28
2022-09-24T23:41:43.512Z,72.09
2022-09-24T23:44:12.070Z,71.91
2022-09-24T23:46:41.566Z,71.69
2022-09-24T23:49:10.329Z,71.03
2022-09-24T23:51:38.825Z,71.59
2022-09-24T23:54:08.856Z,71.65
2022-09-24T23:56:37.233Z,71.84
2022-09-24T23:59:05.637Z,71.39
